sensor_id;sensor_type;location;lat;lon;timestamp;P1;durP1;ratioP1;P2;durP2;ratioP2
41755;SDS011;27435;48.480;9.258;2022-07-04T00:01:19;3.08;;;1.00;;
41755;SDS011;27435;48.480;9.258;2022-07-04T00:03:45;4.25;;;1.20;;
41755;SDS011;27435;48.480;9.258;2022-07-04T00:06:10;5.68;;;1.63;;
41755;SDS011;27435;48.480;9.258;2022-07-04T00:08:36;3.88;;;1.17;;
41755;SDS011;27435;48.480;9.258;2022-07-04T00:11:01;2.08;;;1.02;;
41755;SDS011;27435;48.480;9.258;2022-07-04T00:13:27;5.03;;;1.05;;
41755;SDS011;27435;48.480;9.258;2022-07-04T00:15:53;2.58;;;1.30;;
41755;SDS011;27435;48.480;9.258;2022-07-04T00:18:18;4.88;;;1.42;;
41755;SDS011;27435;48.480;9.258;2022-07-04T00:20:44;2.55;;;1.17;;
41755;SDS011;27435;48.480;9.258;2022-07-04T00:23:10;2.80;;;1.20;;
41755;SDS011;27435;48.480;9.258;2022-07-04T00:25:35;4.57;;;1.30;;
41755;SDS011;27435;48.480;9.258;2022-07-04T00:28:01;2.08;;;1.08;;
41755;SDS011;27435;48.480;9.258;2022-07-04T00:30:26;4.35;;;1.10;;
41755;SDS011;27435;48.480;9.258;2022-07-04T00:32:52;2.10;;;1.25;;
41755;SDS011;27435;48.480;9.258;2022-07-04T00:35:18;2.33;;;1.25;;
41755;SDS011;27435;48.480;9.258;2022-07-04T00:37:44;2.70;;;1.20;;
41755;SDS011;27435;48.480;9.258;2022-07-04T00:40:09;2.33;;;1.30;;
41755;SDS011;27435;48.480;9.258;2022-07-04T00:42:35;2.92;;;1.42;;
41755;SDS011;27435;48.480;9.258;2022-07-04T00:45:01;6.03;;;1.33;;
41755;SDS011;27435;48.480;9.258;2022-07-04T00:47:26;2.67;;;1.20;;
41755;SDS011;27435;48.480;9.258;2022-07-04T00:49:52;1.73;;;1.20;;
41755;SDS011;27435;48.480;9.258;2022-07-04T00:52:17;6.78;;;1.65;;
41755;SDS011;27435;48.480;9.258;2022-07-04T00:54:44;7.35;;;1.38;;
41755;SDS011;27435;48.480;9.258;2022-07-04T00:57:10;3.88;;;1.42;;
41755;SDS011;27435;48.480;9.258;2022-07-04T00:59:39;5.22;;;1.48;;
41755;SDS011;27435;48.480;9.258;2022-07-04T01:02:04;4.38;;;1.02;;
41755;SDS011;27435;48.480;9.258;2022-07-04T01:04:30;2.65;;;1.55;;
41755;SDS011;27435;48.480;9.258;2022-07-04T01:06:56;2.30;;;1.38;;
41755;SDS011;27435;48.480;9.258;2022-07-04T01:09:21;4.97;;;1.33;;
41755;SDS011;27435;48.480;9.258;2022-07-04T01:11:50;2.33;;;1.33;;
41755;SDS011;27435;48.480;9.258;2022-07-04T01:14:16;3.53;;;1.85;;
41755;SDS011;27435;48.480;9.258;2022-07-04T01:16:42;2.58;;;1.33;;
41755;SDS011;27435;48.480;9.258;2022-07-04T01:19:08;3.65;;;1.30;;
41755;SDS011;27435;48.480;9.258;2022-07-04T01:21:33;5.10;;;1.38;;
41755;SDS011;27435;48.480;9.258;2022-07-04T01:23:59;3.75;;;1.27;;
41755;SDS011;27435;48.480;9.258;2022-07-04T01:26:26;2.42;;;1.38;;
41755;SDS011;27435;48.480;9.258;2022-07-04T01:28:53;2.88;;;1.10;;
41755;SDS011;27435;48.480;9.258;2022-07-04T01:31:18;3.10;;;1.30;;
41755;SDS011;27435;48.480;9.258;2022-07-04T01:33:44;5.30;;;1.48;;
41755;SDS011;27435;48.480;9.258;2022-07-04T01:36:09;2.65;;;1.17;;
41755;SDS011;27435;48.480;9.258;2022-07-04T01:38:35;4.95;;;1.63;;
41755;SDS011;27435;48.480;9.258;2022-07-04T01:41:00;4.65;;;1.15;;
41755;SDS011;27435;48.480;9.258;2022-07-04T01:43:26;6.32;;;1.23;;
41755;SDS011;27435;48.480;9.258;2022-07-04T01:45:52;1.67;;;1.10;;
41755;SDS011;27435;48.480;9.258;2022-07-04T01:48:17;2.33;;;1.10;;
41755;SDS011;27435;48.480;9.258;2022-07-04T01:50:43;2.90;;;1.30;;
41755;SDS011;27435;48.480;9.258;2022-07-04T01:53:08;3.67;;;1.13;;
41755;SDS011;27435;48.480;9.258;2022-07-04T01:55:34;8.18;;;1.50;;
41755;SDS011;27435;48.480;9.258;2022-07-04T01:58:00;5.72;;;2.22;;
41755;SDS011;27435;48.480;9.258;2022-07-04T02:00:26;3.22;;;1.40;;
41755;SDS011;27435;48.480;9.258;2022-07-04T02:03:10;3.53;;;1.30;;
41755;SDS011;27435;48.480;9.258;2022-07-04T02:05:36;3.97;;;1.40;;
41755;SDS011;27435;48.480;9.258;2022-07-04T02:08:05;2.15;;;1.30;;
41755;SDS011;27435;48.480;9.258;2022-07-04T02:10:32;5.10;;;1.35;;
41755;SDS011;27435;48.480;9.258;2022-07-04T02:12:57;2.95;;;1.40;;
41755;SDS011;27435;48.480;9.258;2022-07-04T02:15:26;4.03;;;1.63;;
41755;SDS011;27435;48.480;9.258;2022-07-04T02:18:03;5.00;;;1.40;;
41755;SDS011;27435;48.480;9.258;2022-07-04T02:20:29;4.03;;;1.30;;
41755;SDS011;27435;48.480;9.258;2022-07-04T02:22:56;2.60;;;1.10;;
41755;SDS011;27435;48.480;9.258;2022-07-04T02:25:22;3.03;;;1.63;;
41755;SDS011;27435;48.480;9.258;2022-07-04T02:27:47;2.40;;;1.30;;
41755;SDS011;27435;48.480;9.258;2022-07-04T02:30:13;4.88;;;1.50;;
41755;SDS011;27435;48.480;9.258;2022-07-04T02:32:39;2.45;;;1.25;;
41755;SDS011;27435;48.480;9.258;2022-07-04T02:35:05;3.55;;;1.50;;
41755;SDS011;27435;48.480;9.258;2022-07-04T02:37:31;3.20;;;1.20;;
41755;SDS011;27435;48.480;9.258;2022-07-04T02:39:57;2.60;;;1.13;;
41755;SDS011;27435;48.480;9.258;2022-07-04T02:42:23;2.83;;;1.38;;
41755;SDS011;27435;48.480;9.258;2022-07-04T02:44:49;2.20;;;1.42;;
41755;SDS011;27435;48.480;9.258;2022-07-04T02:47:18;7.90;;;1.60;;
41755;SDS011;27435;48.480;9.258;2022-07-04T02:49:43;4.18;;;1.40;;
41755;SDS011;27435;48.480;9.258;2022-07-04T02:52:09;3.38;;;1.50;;
41755;SDS011;27435;48.480;9.258;2022-07-04T02:54:34;9.70;;;1.50;;
41755;SDS011;27435;48.480;9.258;2022-07-04T02:57:00;4.32;;;1.40;;
41755;SDS011;27435;48.480;9.258;2022-07-04T02:59:25;1.88;;;1.40;;
41755;SDS011;27435;48.480;9.258;2022-07-04T03:01:51;4.93;;;2.00;;
41755;SDS011;27435;48.480;9.258;2022-07-04T03:04:17;6.15;;;1.65;;
41755;SDS011;27435;48.480;9.258;2022-07-04T03:06:43;5.13;;;1.77;;
41755;SDS011;27435;48.480;9.258;2022-07-04T03:09:09;2.30;;;1.52;;
41755;SDS011;27435;48.480;9.258;2022-07-04T03:11:35;5.57;;;1.58;;
41755;SDS011;27435;48.480;9.258;2022-07-04T03:14:01;3.00;;;1.30;;
41755;SDS011;27435;48.480;9.258;2022-07-04T03:16:27;4.28;;;1.55;;
41755;SDS011;27435;48.480;9.258;2022-07-04T03:18:52;5.57;;;1.60;;
41755;SDS011;27435;48.480;9.258;2022-07-04T03:21:18;8.18;;;1.58;;
41755;SDS011;27435;48.480;9.258;2022-07-04T03:23:44;6.63;;;1.92;;
41755;SDS011;27435;48.480;9.258;2022-07-04T03:26:22;9.05;;;1.63;;
41755;SDS011;27435;48.480;9.258;2022-07-04T03:28:51;3.50;;;1.75;;
41755;SDS011;27435;48.480;9.258;2022-07-04T03:31:17;2.47;;;1.50;;
41755;SDS011;27435;48.480;9.258;2022-07-04T03:33:43;3.95;;;1.40;;
41755;SDS011;27435;48.480;9.258;2022-07-04T03:36:09;6.53;;;1.70;;
41755;SDS011;27435;48.480;9.258;2022-07-04T03:38:34;6.20;;;1.80;;
41755;SDS011;27435;48.480;9.258;2022-07-04T03:41:00;3.50;;;2.17;;
41755;SDS011;27435;48.480;9.258;2022-07-04T03:43:26;4.55;;;1.60;;
41755;SDS011;27435;48.480;9.258;2022-07-04T03:45:52;2.72;;;1.80;;
41755;SDS011;27435;48.480;9.258;2022-07-04T03:48:17;4.95;;;1.77;;
41755;SDS011;27435;48.480;9.258;2022-07-04T03:50:43;6.07;;;1.80;;
41755;SDS011;27435;48.480;9.258;2022-07-04T03:53:08;5.93;;;1.75;;
41755;SDS011;27435;48.480;9.258;2022-07-04T03:55:34;5.93;;;2.22;;
41755;SDS011;27435;48.480;9.258;2022-07-04T03:58:00;3.63;;;1.83;;
41755;SDS011;27435;48.480;9.258;2022-07-04T04:00:26;6.88;;;1.80;;
41755;SDS011;27435;48.480;9.258;2022-07-04T04:02:52;5.90;;;1.92;;
41755;SDS011;27435;48.480;9.258;2022-07-04T04:05:17;4.40;;;2.25;;
41755;SDS011;27435;48.480;9.258;2022-07-04T04:08:01;4.15;;;1.58;;
41755;SDS011;27435;48.480;9.258;2022-07-04T04:10:28;5.10;;;1.70;;
41755;SDS011;27435;48.480;9.258;2022-07-04T04:12:55;5.55;;;1.70;;
41755;SDS011;27435;48.480;9.258;2022-07-04T04:15:22;5.05;;;2.13;;
41755;SDS011;27435;48.480;9.258;2022-07-04T04:17:47;2.92;;;1.90;;
41755;SDS011;27435;48.480;9.258;2022-07-04T04:20:13;3.00;;;1.48;;
41755;SDS011;27435;48.480;9.258;2022-07-04T04:22:39;7.32;;;1.95;;
41755;SDS011;27435;48.480;9.258;2022-07-04T04:25:04;5.55;;;1.92;;
41755;SDS011;27435;48.480;9.258;2022-07-04T04:27:30;4.13;;;1.77;;
41755;SDS011;27435;48.480;9.258;2022-07-04T04:29:56;4.60;;;2.10;;
41755;SDS011;27435;48.480;9.258;2022-07-04T04:32:21;7.00;;;2.45;;
41755;SDS011;27435;48.480;9.258;2022-07-04T04:34:47;9.00;;;2.10;;
41755;SDS011;27435;48.480;9.258;2022-07-04T04:37:13;4.32;;;2.00;;
41755;SDS011;27435;48.480;9.258;2022-07-04T04:39:38;3.92;;;2.00;;
41755;SDS011;27435;48.480;9.258;2022-07-04T04:42:04;3.20;;;1.48;;
41755;SDS011;27435;48.480;9.258;2022-07-04T04:44:30;4.65;;;1.48;;
41755;SDS011;27435;48.480;9.258;2022-07-04T04:46:55;5.82;;;1.60;;
41755;SDS011;27435;48.480;9.258;2022-07-04T04:49:24;7.55;;;1.92;;
41755;SDS011;27435;48.480;9.258;2022-07-04T04:51:49;7.00;;;1.83;;
41755;SDS011;27435;48.480;9.258;2022-07-04T04:54:15;6.10;;;2.03;;
41755;SDS011;27435;48.480;9.258;2022-07-04T04:56:40;6.30;;;2.13;;
41755;SDS011;27435;48.480;9.258;2022-07-04T04:59:06;7.78;;;2.15;;
41755;SDS011;27435;48.480;9.258;2022-07-04T05:01:32;7.82;;;1.98;;
41755;SDS011;27435;48.480;9.258;2022-07-04T05:03:59;5.07;;;1.95;;
41755;SDS011;27435;48.480;9.258;2022-07-04T05:06:24;6.22;;;1.85;;
41755;SDS011;27435;48.480;9.258;2022-07-04T05:08:50;5.63;;;1.70;;
41755;SDS011;27435;48.480;9.258;2022-07-04T05:11:16;7.50;;;2.33;;
41755;SDS011;27435;48.480;9.258;2022-07-04T05:13:41;3.70;;;1.60;;
41755;SDS011;27435;48.480;9.258;2022-07-04T05:16:07;4.03;;;1.67;;
41755;SDS011;27435;48.480;9.258;2022-07-04T05:18:33;4.35;;;1.73;;
41755;SDS011;27435;48.480;9.258;2022-07-04T05:20:59;7.63;;;1.73;;
41755;SDS011;27435;48.480;9.258;2022-07-04T05:23:24;6.03;;;1.60;;
41755;SDS011;27435;48.480;9.258;2022-07-04T05:25:50;4.50;;;1.73;;
41755;SDS011;27435;48.480;9.258;2022-07-04T05:28:17;7.10;;;1.40;;
41755;SDS011;27435;48.480;9.258;2022-07-04T05:30:42;4.03;;;1.27;;
41755;SDS011;27435;48.480;9.258;2022-07-04T05:33:09;3.28;;;1.58;;
41755;SDS011;27435;48.480;9.258;2022-07-04T05:35:34;6.65;;;1.95;;
41755;SDS011;27435;48.480;9.258;2022-07-04T05:38:01;2.25;;;1.35;;
41755;SDS011;27435;48.480;9.258;2022-07-04T05:40:26;2.78;;;1.50;;
41755;SDS011;27435;48.480;9.258;2022-07-04T05:42:52;5.22;;;1.42;;
41755;SDS011;27435;48.480;9.258;2022-07-04T05:45:18;6.82;;;1.40;;
41755;SDS011;27435;48.480;9.258;2022-07-04T05:47:43;4.05;;;1.35;;
41755;SDS011;27435;48.480;9.258;2022-07-04T05:50:09;2.55;;;1.20;;
41755;SDS011;27435;48.480;9.258;2022-07-04T05:52:35;3.25;;;1.50;;
41755;SDS011;27435;48.480;9.258;2022-07-04T05:55:01;8.80;;;1.67;;
41755;SDS011;27435;48.480;9.258;2022-07-04T05:57:27;3.13;;;1.30;;
41755;SDS011;27435;48.480;9.258;2022-07-04T05:59:53;3.83;;;1.73;;
41755;SDS011;27435;48.480;9.258;2022-07-04T06:02:21;8.38;;;1.63;;
41755;SDS011;27435;48.480;9.258;2022-07-04T06:04:48;3.42;;;1.70;;
41755;SDS011;27435;48.480;9.258;2022-07-04T06:07:21;2.20;;;1.40;;
41755;SDS011;27435;48.480;9.258;2022-07-04T06:09:53;3.25;;;1.30;;
41755;SDS011;27435;48.480;9.258;2022-07-04T06:12:19;3.28;;;1.35;;
41755;SDS011;27435;48.480;9.258;2022-07-04T06:14:46;4.35;;;1.40;;
41755;SDS011;27435;48.480;9.258;2022-07-04T06:17:11;5.53;;;1.83;;
41755;SDS011;27435;48.480;9.258;2022-07-04T06:19:37;5.32;;;1.70;;
41755;SDS011;27435;48.480;9.258;2022-07-04T06:22:03;7.70;;;1.73;;
41755;SDS011;27435;48.480;9.258;2022-07-04T06:24:29;2.83;;;1.50;;
41755;SDS011;27435;48.480;9.258;2022-07-04T06:26:54;7.57;;;1.83;;
41755;SDS011;27435;48.480;9.258;2022-07-04T06:29:20;3.60;;;1.50;;
41755;SDS011;27435;48.480;9.258;2022-07-04T06:31:46;5.78;;;2.10;;
41755;SDS011;27435;48.480;9.258;2022-07-04T06:34:11;5.15;;;1.40;;
41755;SDS011;27435;48.480;9.258;2022-07-04T06:36:55;3.72;;;1.52;;
41755;SDS011;27435;48.480;9.258;2022-07-04T06:39:21;7.38;;;1.92;;
41755;SDS011;27435;48.480;9.258;2022-07-04T06:41:47;9.15;;;1.73;;
41755;SDS011;27435;48.480;9.258;2022-07-04T06:44:12;4.43;;;2.00;;
41755;SDS011;27435;48.480;9.258;2022-07-04T06:46:38;6.82;;;1.50;;
41755;SDS011;27435;48.480;9.258;2022-07-04T06:49:04;4.97;;;1.40;;
41755;SDS011;27435;48.480;9.258;2022-07-04T06:51:46;6.65;;;1.88;;
41755;SDS011;27435;48.480;9.258;2022-07-04T06:54:27;4.15;;;1.60;;
41755;SDS011;27435;48.480;9.258;2022-07-04T06:56:57;15.00;;;1.63;;
41755;SDS011;27435;48.480;9.258;2022-07-04T06:59:22;4.63;;;1.92;;
41755;SDS011;27435;48.480;9.258;2022-07-04T07:01:48;6.57;;;2.03;;
41755;SDS011;27435;48.480;9.258;2022-07-04T07:04:18;4.00;;;1.60;;
41755;SDS011;27435;48.480;9.258;2022-07-04T07:06:49;5.70;;;1.52;;
41755;SDS011;27435;48.480;9.258;2022-07-04T07:09:15;10.82;;;1.90;;
41755;SDS011;27435;48.480;9.258;2022-07-04T07:11:40;6.95;;;1.75;;
41755;SDS011;27435;48.480;9.258;2022-07-04T07:14:06;5.70;;;1.50;;
41755;SDS011;27435;48.480;9.258;2022-07-04T07:16:31;6.25;;;1.70;;
41755;SDS011;27435;48.480;9.258;2022-07-04T07:18:57;5.15;;;1.65;;
41755;SDS011;27435;48.480;9.258;2022-07-04T07:21:23;7.55;;;1.85;;
41755;SDS011;27435;48.480;9.258;2022-07-04T07:23:48;5.82;;;1.60;;
41755;SDS011;27435;48.480;9.258;2022-07-04T07:26:14;4.68;;;1.58;;
41755;SDS011;27435;48.480;9.258;2022-07-04T07:28:41;8.25;;;1.70;;
41755;SDS011;27435;48.480;9.258;2022-07-04T07:31:07;6.63;;;1.55;;
41755;SDS011;27435;48.480;9.258;2022-07-04T07:33:32;3.65;;;1.45;;
41755;SDS011;27435;48.480;9.258;2022-07-04T07:35:58;3.20;;;1.30;;
41755;SDS011;27435;48.480;9.258;2022-07-04T07:38:24;4.00;;;1.45;;
41755;SDS011;27435;48.480;9.258;2022-07-04T07:40:50;4.40;;;1.67;;
41755;SDS011;27435;48.480;9.258;2022-07-04T07:43:16;10.05;;;1.90;;
41755;SDS011;27435;48.480;9.258;2022-07-04T07:45:42;6.15;;;1.50;;
41755;SDS011;27435;48.480;9.258;2022-07-04T07:48:07;5.45;;;1.80;;
41755;SDS011;27435;48.480;9.258;2022-07-04T07:50:33;4.60;;;1.75;;
41755;SDS011;27435;48.480;9.258;2022-07-04T07:52:58;3.58;;;1.55;;
41755;SDS011;27435;48.480;9.258;2022-07-04T07:55:24;5.05;;;1.90;;
41755;SDS011;27435;48.480;9.258;2022-07-04T07:57:50;4.53;;;1.88;;
41755;SDS011;27435;48.480;9.258;2022-07-04T08:00:17;6.57;;;2.10;;
41755;SDS011;27435;48.480;9.258;2022-07-04T08:02:43;6.75;;;2.00;;
41755;SDS011;27435;48.480;9.258;2022-07-04T08:05:27;6.00;;;2.00;;
41755;SDS011;27435;48.480;9.258;2022-07-04T08:07:52;5.93;;;1.85;;
41755;SDS011;27435;48.480;9.258;2022-07-04T08:10:18;4.65;;;1.70;;
41755;SDS011;27435;48.480;9.258;2022-07-04T08:12:44;5.85;;;2.03;;
41755;SDS011;27435;48.480;9.258;2022-07-04T08:15:10;5.97;;;2.05;;
41755;SDS011;27435;48.480;9.258;2022-07-04T08:17:35;4.05;;;1.77;;
41755;SDS011;27435;48.480;9.258;2022-07-04T08:20:02;7.70;;;1.52;;
41755;SDS011;27435;48.480;9.258;2022-07-04T08:22:28;8.07;;;1.73;;
41755;SDS011;27435;48.480;9.258;2022-07-04T08:24:54;4.45;;;1.45;;
41755;SDS011;27435;48.480;9.258;2022-07-04T08:27:20;7.18;;;2.03;;
41755;SDS011;27435;48.480;9.258;2022-07-04T08:29:47;4.00;;;1.63;;
41755;SDS011;27435;48.480;9.258;2022-07-04T08:32:13;3.65;;;1.63;;
41755;SDS011;27435;48.480;9.258;2022-07-04T08:34:39;4.70;;;1.27;;
41755;SDS011;27435;48.480;9.258;2022-07-04T08:37:05;4.72;;;1.75;;
41755;SDS011;27435;48.480;9.258;2022-07-04T08:39:30;3.33;;;1.70;;
41755;SDS011;27435;48.480;9.258;2022-07-04T08:41:58;5.63;;;1.63;;
41755;SDS011;27435;48.480;9.258;2022-07-04T08:44:28;7.45;;;1.48;;
41755;SDS011;27435;48.480;9.258;2022-07-04T08:46:55;4.13;;;1.70;;
41755;SDS011;27435;48.480;9.258;2022-07-04T08:49:21;3.47;;;1.90;;
41755;SDS011;27435;48.480;9.258;2022-07-04T08:51:52;3.63;;;1.77;;
41755;SDS011;27435;48.480;9.258;2022-07-04T08:54:24;6.57;;;1.73;;
41755;SDS011;27435;48.480;9.258;2022-07-04T08:57:09;4.57;;;1.80;;
41755;SDS011;27435;48.480;9.258;2022-07-04T08:59:54;4.88;;;1.50;;
41755;SDS011;27435;48.480;9.258;2022-07-04T09:02:21;10.35;;;1.63;;
41755;SDS011;27435;48.480;9.258;2022-07-04T09:04:49;7.70;;;1.50;;
41755;SDS011;27435;48.480;9.258;2022-07-04T09:07:15;5.60;;;1.67;;
41755;SDS011;27435;48.480;9.258;2022-07-04T09:09:42;4.05;;;1.42;;
41755;SDS011;27435;48.480;9.258;2022-07-04T09:12:09;7.60;;;1.75;;
41755;SDS011;27435;48.480;9.258;2022-07-04T09:14:35;6.60;;;2.00;;
41755;SDS011;27435;48.480;9.258;2022-07-04T09:17:02;10.52;;;2.78;;
41755;SDS011;27435;48.480;9.258;2022-07-04T09:19:28;4.13;;;1.70;;
41755;SDS011;27435;48.480;9.258;2022-07-04T09:21:54;8.63;;;1.70;;
41755;SDS011;27435;48.480;9.258;2022-07-04T09:27:11;3.42;;;1.80;;
41755;SDS011;27435;48.480;9.258;2022-07-04T09:29:51;6.20;;;2.20;;
41755;SDS011;27435;48.480;9.258;2022-07-04T09:32:32;3.83;;;1.88;;
41755;SDS011;27435;48.480;9.258;2022-07-04T09:34:59;7.13;;;1.58;;
41755;SDS011;27435;48.480;9.258;2022-07-04T09:37:33;9.73;;;1.67;;
41755;SDS011;27435;48.480;9.258;2022-07-04T09:40:00;4.82;;;1.63;;
41755;SDS011;27435;48.480;9.258;2022-07-04T09:42:33;4.68;;;1.77;;
41755;SDS011;27435;48.480;9.258;2022-07-04T09:45:03;7.10;;;1.83;;
41755;SDS011;27435;48.480;9.258;2022-07-04T09:47:31;5.32;;;1.45;;
41755;SDS011;27435;48.480;9.258;2022-07-04T09:52:25;5.75;;;1.92;;
41755;SDS011;27435;48.480;9.258;2022-07-04T09:54:55;3.88;;;1.33;;
41755;SDS011;27435;48.480;9.258;2022-07-04T09:57:23;3.95;;;1.58;;
41755;SDS011;27435;48.480;9.258;2022-07-04T09:59:49;4.45;;;1.67;;
41755;SDS011;27435;48.480;9.258;2022-07-04T10:02:14;4.00;;;1.50;;
41755;SDS011;27435;48.480;9.258;2022-07-04T10:04:47;5.90;;;1.92;;
41755;SDS011;27435;48.480;9.258;2022-07-04T10:10:26;7.95;;;2.08;;
41755;SDS011;27435;48.480;9.258;2022-07-04T10:13:20;12.27;;;2.33;;
41755;SDS011;27435;48.480;9.258;2022-07-04T10:15:44;6.50;;;2.15;;
41755;SDS011;27435;48.480;9.258;2022-07-04T10:18:10;4.60;;;1.90;;
41755;SDS011;27435;48.480;9.258;2022-07-04T10:20:36;3.88;;;1.67;;
41755;SDS011;27435;48.480;9.258;2022-07-04T10:23:02;4.50;;;1.70;;
41755;SDS011;27435;48.480;9.258;2022-07-04T10:25:28;3.22;;;1.70;;
41755;SDS011;27435;48.480;9.258;2022-07-04T10:27:54;3.80;;;1.80;;
41755;SDS011;27435;48.480;9.258;2022-07-04T10:30:22;11.40;;;2.13;;
41755;SDS011;27435;48.480;9.258;2022-07-04T10:32:51;4.20;;;2.35;;
41755;SDS011;27435;48.480;9.258;2022-07-04T10:35:46;5.45;;;1.63;;
41755;SDS011;27435;48.480;9.258;2022-07-04T10:38:19;5.60;;;1.80;;
41755;SDS011;27435;48.480;9.258;2022-07-04T10:41:07;2.97;;;1.60;;
41755;SDS011;27435;48.480;9.258;2022-07-04T10:48:35;5.38;;;1.90;;
41755;SDS011;27435;48.480;9.258;2022-07-04T10:53:28;4.32;;;1.90;;
41755;SDS011;27435;48.480;9.258;2022-07-04T10:56:03;7.13;;;2.00;;
41755;SDS011;27435;48.480;9.258;2022-07-04T10:58:52;4.72;;;1.50;;
41755;SDS011;27435;48.480;9.258;2022-07-04T11:01:19;8.90;;;1.88;;
41755;SDS011;27435;48.480;9.258;2022-07-04T11:03:48;5.20;;;1.73;;
41755;SDS011;27435;48.480;9.258;2022-07-04T11:06:49;3.35;;;1.30;;
41755;SDS011;27435;48.480;9.258;2022-07-04T11:12:01;2.85;;;1.30;;
41755;SDS011;27435;48.480;9.258;2022-07-04T11:16:59;5.53;;;2.33;;
41755;SDS011;27435;48.480;9.258;2022-07-04T11:19:25;5.53;;;1.67;;
41755;SDS011;27435;48.480;9.258;2022-07-04T11:21:53;3.88;;;2.08;;
41755;SDS011;27435;48.480;9.258;2022-07-04T11:24:21;4.68;;;1.95;;
41755;SDS011;27435;48.480;9.258;2022-07-04T11:26:47;3.80;;;1.50;;
41755;SDS011;27435;48.480;9.258;2022-07-04T11:29:13;4.07;;;1.45;;
41755;SDS011;27435;48.480;9.258;2022-07-04T11:31:43;6.78;;;1.70;;
41755;SDS011;27435;48.480;9.258;2022-07-04T11:34:13;4.15;;;1.58;;
41755;SDS011;27435;48.480;9.258;2022-07-04T11:36:40;3.42;;;1.40;;
41755;SDS011;27435;48.480;9.258;2022-07-04T11:39:08;6.00;;;1.40;;
41755;SDS011;27435;48.480;9.258;2022-07-04T11:41:43;5.82;;;1.30;;
41755;SDS011;27435;48.480;9.258;2022-07-04T11:44:29;2.60;;;1.33;;
41755;SDS011;27435;48.480;9.258;2022-07-04T11:47:18;7.75;;;1.27;;
41755;SDS011;27435;48.480;9.258;2022-07-04T11:49:49;4.75;;;1.45;;
41755;SDS011;27435;48.480;9.258;2022-07-04T11:52:24;4.68;;;1.40;;
41755;SDS011;27435;48.480;9.258;2022-07-04T11:54:51;3.28;;;1.27;;
41755;SDS011;27435;48.480;9.258;2022-07-04T11:57:22;2.97;;;1.25;;
41755;SDS011;27435;48.480;9.258;2022-07-04T11:59:57;6.22;;;1.60;;
41755;SDS011;27435;48.480;9.258;2022-07-04T12:02:24;4.90;;;1.20;;
41755;SDS011;27435;48.480;9.258;2022-07-04T12:04:51;8.07;;;1.23;;
41755;SDS011;27435;48.480;9.258;2022-07-04T12:07:18;4.85;;;1.42;;
41755;SDS011;27435;48.480;9.258;2022-07-04T12:09:46;6.38;;;1.80;;
41755;SDS011;27435;48.480;9.258;2022-07-04T12:12:12;3.42;;;1.38;;
41755;SDS011;27435;48.480;9.258;2022-07-04T12:14:58;5.35;;;1.42;;
41755;SDS011;27435;48.480;9.258;2022-07-04T12:17:33;3.28;;;1.45;;
41755;SDS011;27435;48.480;9.258;2022-07-04T12:20:01;4.85;;;1.83;;
41755;SDS011;27435;48.480;9.258;2022-07-04T12:22:37;3.65;;;1.33;;
41755;SDS011;27435;48.480;9.258;2022-07-04T12:25:07;3.35;;;1.25;;
41755;SDS011;27435;48.480;9.258;2022-07-04T12:27:51;3.95;;;1.55;;
41755;SDS011;27435;48.480;9.258;2022-07-04T12:30:18;5.30;;;1.52;;
41755;SDS011;27435;48.480;9.258;2022-07-04T12:32:47;4.28;;;1.42;;
41755;SDS011;27435;48.480;9.258;2022-07-04T12:38:21;3.85;;;1.48;;
41755;SDS011;27435;48.480;9.258;2022-07-04T12:46:25;7.43;;;1.25;;
41755;SDS011;27435;48.480;9.258;2022-07-04T12:48:54;2.65;;;1.40;;
41755;SDS011;27435;48.480;9.258;2022-07-04T12:51:21;2.30;;;1.10;;
41755;SDS011;27435;48.480;9.258;2022-07-04T12:53:49;6.20;;;1.13;;
41755;SDS011;27435;48.480;9.258;2022-07-04T12:59:05;4.35;;;1.30;;
41755;SDS011;27435;48.480;9.258;2022-07-04T13:01:33;4.43;;;1.27;;
41755;SDS011;27435;48.480;9.258;2022-07-04T13:03:59;9.00;;;1.67;;
41755;SDS011;27435;48.480;9.258;2022-07-04T13:06:25;2.70;;;1.20;;
41755;SDS011;27435;48.480;9.258;2022-07-04T13:08:51;5.10;;;1.25;;
41755;SDS011;27435;48.480;9.258;2022-07-04T13:11:21;2.13;;;1.38;;
41755;SDS011;27435;48.480;9.258;2022-07-04T13:14:05;4.30;;;1.20;;
41755;SDS011;27435;48.480;9.258;2022-07-04T13:16:30;2.53;;;1.33;;
41755;SDS011;27435;48.480;9.258;2022-07-04T13:18:56;4.25;;;1.30;;
41755;SDS011;27435;48.480;9.258;2022-07-04T13:21:23;4.95;;;1.85;;
41755;SDS011;27435;48.480;9.258;2022-07-04T13:23:49;3.30;;;1.13;;
41755;SDS011;27435;48.480;9.258;2022-07-04T13:26:14;4.35;;;1.40;;
41755;SDS011;27435;48.480;9.258;2022-07-04T13:28:40;2.20;;;1.20;;
41755;SDS011;27435;48.480;9.258;2022-07-04T13:31:06;6.57;;;1.13;;
41755;SDS011;27435;48.480;9.258;2022-07-04T13:33:32;4.32;;;1.20;;
41755;SDS011;27435;48.480;9.258;2022-07-04T13:35:57;4.63;;;1.00;;
41755;SDS011;27435;48.480;9.258;2022-07-04T13:38:23;8.25;;;1.20;;
41755;SDS011;27435;48.480;9.258;2022-07-04T13:40:49;3.88;;;1.10;;
41755;SDS011;27435;48.480;9.258;2022-07-04T13:43:15;4.65;;;1.15;;
41755;SDS011;27435;48.480;9.258;2022-07-04T13:45:41;5.45;;;1.63;;
41755;SDS011;27435;48.480;9.258;2022-07-04T13:48:09;2.45;;;1.17;;
41755;SDS011;27435;48.480;9.258;2022-07-04T13:50:36;2.15;;;1.10;;
41755;SDS011;27435;48.480;9.258;2022-07-04T13:53:06;6.40;;;1.30;;
41755;SDS011;27435;48.480;9.258;2022-07-04T13:55:35;2.83;;;1.10;;
41755;SDS011;27435;48.480;9.258;2022-07-04T13:58:04;4.32;;;0.95;;
41755;SDS011;27435;48.480;9.258;2022-07-04T14:00:31;6.95;;;1.20;;
41755;SDS011;27435;48.480;9.258;2022-07-04T14:02:58;4.13;;;1.30;;
41755;SDS011;27435;48.480;9.258;2022-07-04T14:05:24;3.75;;;1.35;;
41755;SDS011;27435;48.480;9.258;2022-07-04T14:07:51;6.15;;;1.30;;
41755;SDS011;27435;48.480;9.258;2022-07-04T14:10:17;3.30;;;1.10;;
41755;SDS011;27435;48.480;9.258;2022-07-04T14:12:42;2.83;;;1.00;;
41755;SDS011;27435;48.480;9.258;2022-07-04T14:15:08;3.88;;;1.20;;
41755;SDS011;27435;48.480;9.258;2022-07-04T14:17:35;3.50;;;1.15;;
41755;SDS011;27435;48.480;9.258;2022-07-04T14:20:01;6.28;;;1.00;;
41755;SDS011;27435;48.480;9.258;2022-07-04T14:22:29;6.28;;;1.20;;
41755;SDS011;27435;48.480;9.258;2022-07-04T14:24:54;5.65;;;1.40;;
41755;SDS011;27435;48.480;9.258;2022-07-04T14:27:20;3.20;;;1.33;;
41755;SDS011;27435;48.480;9.258;2022-07-04T14:29:45;3.63;;;1.20;;
41755;SDS011;27435;48.480;9.258;2022-07-04T14:32:11;3.22;;;1.10;;
41755;SDS011;27435;48.480;9.258;2022-07-04T14:34:37;5.20;;;1.05;;
41755;SDS011;27435;48.480;9.258;2022-07-04T14:37:03;2.47;;;1.20;;
41755;SDS011;27435;48.480;9.258;2022-07-04T14:39:29;3.03;;;1.10;;
41755;SDS011;27435;48.480;9.258;2022-07-04T14:41:54;3.35;;;1.10;;
41755;SDS011;27435;48.480;9.258;2022-07-04T14:44:20;5.70;;;1.35;;
41755;SDS011;27435;48.480;9.258;2022-07-04T14:46:46;5.18;;;1.30;;
41755;SDS011;27435;48.480;9.258;2022-07-04T14:49:11;5.30;;;1.15;;
41755;SDS011;27435;48.480;9.258;2022-07-04T14:51:37;3.22;;;1.27;;
41755;SDS011;27435;48.480;9.258;2022-07-04T14:54:07;3.63;;;1.40;;
41755;SDS011;27435;48.480;9.258;2022-07-04T14:56:33;3.95;;;1.13;;
41755;SDS011;27435;48.480;9.258;2022-07-04T14:58:59;1.80;;;1.00;;
41755;SDS011;27435;48.480;9.258;2022-07-04T15:01:25;5.32;;;1.30;;
41755;SDS011;27435;48.480;9.258;2022-07-04T15:03:51;4.00;;;1.17;;
41755;SDS011;27435;48.480;9.258;2022-07-04T15:06:18;4.82;;;1.58;;
41755;SDS011;27435;48.480;9.258;2022-07-04T15:08:43;6.68;;;1.48;;
41755;SDS011;27435;48.480;9.258;2022-07-04T15:11:09;4.60;;;1.20;;
41755;SDS011;27435;48.480;9.258;2022-07-04T15:13:34;4.50;;;1.45;;
41755;SDS011;27435;48.480;9.258;2022-07-04T15:16:00;3.13;;;1.10;;
41755;SDS011;27435;48.480;9.258;2022-07-04T15:18:26;2.15;;;1.10;;
41755;SDS011;27435;48.480;9.258;2022-07-04T15:20:52;2.95;;;0.95;;
41755;SDS011;27435;48.480;9.258;2022-07-04T15:23:36;2.67;;;1.10;;